Time;durP1;ratioP1;P1;durP2;ratioP2;P2;SDS_P1;SDS_P2;PMS_P1;PMS_P2;Temp;Humidity;BMP_temperature;BMP_pressure;BME280_temperature;BME280_humidity;BME280_pressure;Samples;Min_cycle;Max_cycle;Signal;HPM_P1;HPM_P2
2022/05/03 00:00:03;;;;;;;1.70;1.60;;;10.70;49.40;;;;;;5033512;28;20429;-62
2022/05/03 00:02:40;;;;;;;2.93;1.70;;;10.70;49.30;;;;;;5033614;28;20488;-61
2022/05/03 00:05:11;;;;;;;2.10;1.90;;;10.60;49.30;;;;;;5033618;28;20443;-61
2022/05/03 00:07:45;;;;;;;3.70;1.37;;;10.50;49.20;;;;;;5033146;28;20514;-61
2022/05/03 00:10:15;;;;;;;1.40;1.30;;;10.40;49.30;;;;;;5033056;28;20456;-61
2022/05/03 00:12:48;;;;;;;2.35;1.73;;;10.40;49.30;;;;;;5032882;28;20469;-61
2022/05/03 00:15:18;;;;;;;2.75;2.10;;;10.30;49.30;;;;;;5033132;28;20215;-61
2022/05/03 00:17:46;;;;;;;3.23;1.67;;;10.30;49.50;;;;;;5042694;28;20241;-60
2022/05/03 00:20:13;;;;;;;1.70;1.40;;;10.30;49.60;;;;;;5042928;28;20452;-61
2022/05/03 00:22:41;;;;;;;2.70;1.80;;;10.20;49.60;;;;;;5032902;28;20239;-61
2022/05/03 00:25:09;;;;;;;2.87;1.60;;;10.10;49.80;;;;;;5034731;28;20198;-62
2022/05/03 00:27:36;;;;;;;2.05;1.50;;;10.10;49.90;;;;;;5037269;28;20447;-61
2022/05/03 00:30:06;;;;;;;2.55;1.88;;;10.00;49.90;;;;;;5037367;28;20202;-62
2022/05/03 00:32:34;;;;;;;4.82;1.67;;;10.00;50.10;;;;;;5037105;28;20245;-62
2022/05/03 00:35:01;;;;;;;2.50;1.90;;;9.90;51.10;;;;;;5037360;28;20225;-61
2022/05/03 00:37:28;;;;;;;3.35;1.60;;;9.90;51.20;;;;;;5036969;28;20855;-61
2022/05/03 00:39:56;;;;;;;3.28;2.10;;;9.80;51.30;;;;;;5045239;28;20588;-61
2022/05/03 00:42:26;;;;;;;4.22;2.13;;;9.80;51.40;;;;;;5043646;28;20230;-62
2022/05/03 00:45:05;;;;;;;3.15;2.20;;;9.80;51.50;;;;;;5037048;28;20697;-61
2022/05/03 00:47:50;;;;;;;1.60;1.50;;;9.80;51.60;;;;;;5036635;28;20193;-62
2022/05/03 00:50:33;;;;;;;5.80;1.92;;;9.80;51.60;;;;;;5036009;28;20248;-61
2022/05/03 00:53:08;;;;;;;2.53;1.60;;;9.70;51.60;;;;;;5036144;28;20226;-61
2022/05/03 00:55:56;;;;;;;2.10;1.70;;;9.80;51.60;;;;;;5036647;28;20236;-60
2022/05/03 00:58:36;;;;;;;2.53;1.63;;;9.70;51.50;;;;;;5006395;28;20201;-61
2022/05/03 01:01:06;;;;;;;1.40;1.30;;;9.70;51.50;;;;;;5036624;28;20604;-61
2022/05/03 01:03:41;;;;;;;2.40;1.70;;;9.70;51.60;;;;;;5037345;28;20197;-60
2022/05/03 01:06:22;;;;;;;1.65;1.55;;;9.60;51.70;;;;;;5037923;28;20185;-61
2022/05/03 01:09:02;;;;;;;2.10;1.90;;;9.60;51.80;;;;;;5038155;28;20223;-60
2022/05/03 01:11:36;;;;;;;2.40;1.88;;;9.50;51.90;;;;;;5037674;28;20228;-60
2022/05/03 01:14:13;;;;;;;2.38;1.77;;;9.50;52.10;;;;;;5038179;28;20206;-61
2022/05/03 01:16:54;;;;;;;3.78;1.90;;;9.40;52.20;;;;;;5037376;28;20552;-60
2022/05/03 01:19:34;;;;;;;3.97;2.00;;;9.40;52.40;;;;;;5037081;28;20194;-61
2022/05/03 01:22:20;;;;;;;4.18;2.33;;;9.40;52.60;;;;;;5036237;28;20314;-61
2022/05/03 01:25:18;;;;;;;3.80;2.05;;;9.30;52.70;;;;;;5035847;28;20200;-61
2022/05/03 01:28:03;;;;;;;3.28;2.20;;;9.20;52.80;;;;;;5035807;28;20194;-61
2022/05/03 01:30:32;;;;;;;2.75;1.95;;;9.20;53.10;;;;;;5036084;28;20222;-61
2022/05/03 01:33:07;;;;;;;2.88;1.88;;;9.10;53.30;;;;;;5035681;28;20238;-61
2022/05/03 01:35:38;;;;;;;3.78;2.05;;;9.10;53.60;;;;;;5035840;28;20240;-60
2022/05/03 01:38:28;;;;;;;4.05;3.08;;;9.00;53.80;;;;;;5034723;28;20204;-60
2022/05/03 01:41:14;;;;;;;3.33;2.28;;;9.00;54.10;;;;;;5035703;28;20233;-61
2022/05/03 01:43:55;;;;;;;2.75;2.03;;;8.90;54.30;;;;;;5035584;28;20552;-60
2022/05/03 01:46:25;;;;;;;2.33;2.10;;;8.80;54.60;;;;;;5035698;28;20186;-62
2022/05/03 01:52:04;;;;;;;3.13;2.22;;;8.70;55.10;;;;;;5035812;28;20269;-61
2022/05/03 01:55:00;;;;;;;2.60;2.00;;;8.60;55.30;;;;;;5035271;28;20208;-60
2022/05/03 01:57:35;;;;;;;2.95;2.33;;;8.60;55.60;;;;;;5030350;28;20210;-60
2022/05/03 02:00:07;;;;;;;4.53;2.35;;;8.50;55.90;;;;;;5035165;28;20190;-61
2022/05/03 02:02:52;;;;;;;2.60;2.40;;;8.50;56.10;;;;;;5035192;28;20225;-61
2022/05/03 02:05:26;;;;;;;3.35;2.17;;;8.50;56.40;;;;;;5036568;28;20590;-61
2022/05/03 02:07:55;;;;;;;2.95;2.33;;;8.40;56.50;;;;;;5037463;28;20201;-60
2022/05/03 02:10:50;;;;;;;2.40;2.20;;;8.40;56.80;;;;;;5036712;28;20207;-61
2022/05/03 02:16:52;;;;;;;2.17;1.98;;;8.30;57.20;;;;;;4944291;28;20202;-61
2022/05/03 02:19:46;;;;;;;3.35;2.40;;;8.30;58.10;;;;;;5035142;28;20191;-61
2022/05/03 02:22:32;;;;;;;3.28;1.98;;;8.30;57.70;;;;;;5034825;28;20240;-61
2022/05/03 02:25:05;;;;;;;3.30;1.95;;;8.30;57.90;;;;;;5035044;28;20189;-61
2022/05/03 02:27:35;;;;;;;2.67;2.40;;;8.30;58.10;;;;;;5035034;28;20215;-61
2022/05/03 02:30:04;;;;;;;3.35;2.10;;;8.20;58.10;;;;;;5035676;28;20203;-61
2022/05/03 02:32:50;;;;;;;3.63;2.72;;;8.20;58.20;;;;;;5034332;28;20623;-61
2022/05/03 02:35:22;;;;;;;2.30;2.10;;;8.20;58.40;;;;;;5034521;28;20699;-61
2022/05/03 02:37:50;;;;;;;2.90;2.10;;;8.20;58.50;;;;;;5034934;28;20191;-61
2022/05/03 02:40:21;;;;;;;2.40;2.20;;;8.20;58.60;;;;;;5035009;28;20235;-61
2022/05/03 02:42:52;;;;;;;2.40;2.20;;;8.20;58.70;;;;;;5034841;28;20591;-61
2022/05/03 02:45:19;;;;;;;2.90;2.05;;;8.20;58.70;;;;;;5034709;28;20553;-61
2022/05/03 02:47:53;;;;;;;4.78;2.30;;;8.30;58.80;;;;;;5033809;28;20661;-61
2022/05/03 02:50:27;;;;;;;4.82;2.50;;;8.30;58.80;;;;;;5034054;28;20643;-61
2022/05/03 02:52:59;;;;;;;3.95;2.38;;;8.30;58.70;;;;;;5036313;28;20233;-61
2022/05/03 02:55:36;;;;;;;2.70;2.03;;;8.40;58.70;;;;;;5043605;28;20211;-61
2022/05/03 02:58:14;;;;;;;2.58;1.98;;;8.40;59.30;;;;;;5034384;28;20216;-60
2022/05/03 03:04:05;;;;;;;2.67;2.03;;;8.50;58.80;;;;;;5035023;28;20228;-59
2022/05/03 03:06:35;;;;;;;6.68;2.40;;;8.50;58.90;;;;;;5036183;28;20198;-60
2022/05/03 03:09:03;;;;;;;2.42;2.22;;;8.50;59.00;;;;;;5036610;28;20193;-61
2022/05/03 03:11:43;;;;;;;2.60;2.38;;;8.50;59.10;;;;;;5036601;28;20260;-61
2022/05/03 03:14:15;;;;;;;2.65;2.45;;;8.50;59.20;;;;;;5034890;28;20530;-61
2022/05/03 03:17:03;;;;;;;3.15;1.98;;;8.50;59.20;;;;;;5034158;28;20193;-61
2022/05/03 03:19:56;;;;;;;4.15;2.55;;;8.50;59.30;;;;;;5034136;28;20191;-61
2022/05/03 03:22:29;;;;;;;5.03;2.38;;;8.60;59.50;;;;;;5053314;22;20289;-61
2022/05/03 03:24:59;;;;;;;4.82;2.60;;;8.60;59.50;;;;;;5033961;28;20219;-61
2022/05/03 03:27:29;;;;;;;3.00;2.67;;;8.60;59.50;;;;;;5033480;28;20652;-61
2022/05/03 03:29:58;;;;;;;2.97;2.55;;;8.60;59.60;;;;;;5033388;28;20210;-60
2022/05/03 03:32:27;;;;;;;3.22;2.30;;;8.60;59.90;;;;;;5033729;28;20255;-61
2022/05/03 03:34:55;;;;;;;4.05;2.90;;;8.60;60.00;;;;;;5033216;28;20228;-60
2022/05/03 03:37:28;;;;;;;6.25;3.08;;;8.60;60.30;;;;;;5033505;28;20200;-60
2022/05/03 03:39:55;;;;;;;3.10;2.65;;;8.50;60.40;;;;;;5033259;28;20193;-60
2022/05/03 03:42:22;;;;;;;3.13;2.83;;;8.50;60.80;;;;;;5033148;28;20218;-61
2022/05/03 03:44:50;;;;;;;2.78;2.47;;;8.40;61.90;;;;;;5033556;28;20206;-59
2022/05/03 03:47:17;;;;;;;3.75;2.88;;;8.40;61.70;;;;;;5035486;28;20671;-62
2022/05/03 03:49:44;;;;;;;5.85;2.72;;;8.40;62.00;;;;;;5036360;28;20211;-60
2022/05/03 03:52:13;;;;;;;2.85;2.47;;;8.40;62.30;;;;;;5035560;28;20290;-60
2022/05/03 03:54:42;;;;;;;5.60;2.75;;;8.40;62.50;;;;;;5035387;28;20228;-61
2022/05/03 03:57:10;;;;;;;4.30;3.13;;;8.40;62.70;;;;;;5033411;28;20209;-61
2022/05/03 03:59:38;;;;;;;4.47;2.50;;;8.30;62.80;;;;;;5033121;28;20203;-60
2022/05/03 04:02:06;;;;;;;3.05;2.75;;;8.30;63.00;;;;;;5033577;28;20591;-60
2022/05/03 04:04:37;;;;;;;4.13;3.00;;;8.40;63.30;;;;;;5033566;28;20585;-60
2022/05/03 04:09:42;;;;;;;3.88;3.40;;;8.40;63.30;;;;;;5096886;27;20605;-61
2022/05/03 04:12:09;;;;;;;3.00;2.75;;;8.40;63.60;;;;;;5096922;28;20230;-60
2022/05/03 04:14:36;;;;;;;5.65;3.05;;;8.40;63.70;;;;;;5097165;28;20213;-60
2022/05/03 04:17:04;;;;;;;4.28;3.38;;;8.40;63.70;;;;;;5096123;28;20209;-62
2022/05/03 04:19:31;;;;;;;3.08;2.63;;;8.40;63.90;;;;;;5094549;28;20644;-62
2022/05/03 04:22:12;;;;;;;3.60;2.85;;;8.30;64.30;;;;;;5095885;28;20732;-63
2022/05/03 04:24:41;;;;;;;3.75;2.78;;;8.30;64.70;;;;;;5093550;28;20193;-62
2022/05/03 04:27:08;;;;;;;4.53;3.13;;;8.30;65.10;;;;;;5093852;28;20319;-61
2022/05/03 04:29:35;;;;;;;3.28;2.70;;;8.30;65.40;;;;;;5092779;28;20220;-62
2022/05/03 04:32:03;;;;;;;4.18;2.30;;;8.20;65.50;;;;;;5093465;28;20735;-62
2022/05/03 04:34:30;;;;;;;3.30;3.00;;;8.20;65.60;;;;;;5097941;28;20227;-61
2022/05/03 04:36:59;;;;;;;3.67;2.72;;;8.20;65.80;;;;;;5096279;28;20198;-62
2022/05/03 04:39:26;;;;;;;7.70;3.22;;;8.20;66.10;;;;;;5092131;28;20203;-62
2022/05/03 04:41:55;;;;;;;4.32;3.20;;;8.20;66.40;;;;;;5092272;28;20226;-61
2022/05/03 04:44:22;;;;;;;3.45;3.15;;;8.20;66.70;;;;;;5092801;28;20206;-61
2022/05/03 04:46:49;;;;;;;7.30;3.60;;;8.10;67.00;;;;;;5093222;28;20223;-61
2022/05/03 04:49:16;;;;;;;6.15;4.30;;;8.10;67.40;;;;;;5092322;28;20699;-61
2022/05/03 04:51:43;;;;;;;3.35;3.15;;;8.10;67.80;;;;;;5094568;28;20220;-62
2022/05/03 04:54:10;;;;;;;6.63;4.00;;;8.10;68.20;;;;;;5094587;28;20204;-62
2022/05/03 04:56:37;;;;;;;4.75;4.00;;;8.20;68.60;;;;;;5097325;28;20209;-61
2022/05/03 04:59:08;;;;;;;6.32;4.10;;;8.20;68.90;;;;;;5092262;28;20204;-62
2022/05/03 05:01:35;;;;;;;5.38;4.00;;;8.20;69.20;;;;;;5091646;28;20706;-60
2022/05/03 05:04:03;;;;;;;4.78;3.45;;;8.30;69.30;;;;;;5091134;28;20236;-59
2022/05/03 05:06:30;;;;;;;8.52;4.20;;;8.40;69.10;;;;;;5091302;28;20204;-59
2022/05/03 05:08:57;;;;;;;9.55;4.10;;;8.50;69.30;;;;;;5090837;28;20220;-60
2022/05/03 05:11:24;;;;;;;5.20;3.85;;;8.70;69.50;;;;;;5090289;28;20717;-60
2022/05/03 05:13:51;;;;;;;5.93;3.90;;;8.90;69.20;;;;;;5092496;28;20253;-59
2022/05/03 05:16:20;;;;;;;5.63;4.10;;;9.20;68.50;;;;;;5103803;28;20231;-60
2022/05/03 05:18:47;;;;;;;4.57;3.80;;;9.50;67.70;;;;;;5103816;28;20434;-60
2022/05/03 05:21:15;;;;;;;6.90;3.73;;;9.80;66.80;;;;;;5079148;28;20446;-61
2022/05/03 05:23:42;;;;;;;4.40;3.53;;;10.00;64.70;;;;;;5077303;28;20487;-60
2022/05/03 05:26:09;;;;;;;3.87;3.43;;;10.20;63.80;;;;;;5076266;28;20823;-60
2022/05/03 05:28:36;;;;;;;8.50;4.20;;;10.30;63.20;;;;;;5076400;28;20468;-60
2022/05/03 05:31:04;;;;;;;5.60;3.50;;;10.40;62.70;;;;;;5077052;28;20891;-61
2022/05/03 05:33:32;;;;;;;7.20;3.60;;;10.40;62.10;;;;;;5076188;28;20467;-60
2022/05/03 05:36:00;;;;;;;6.60;4.60;;;10.50;61.70;;;;;;5076135;28;20446;-61
2022/05/03 05:38:27;;;;;;;5.43;4.57;;;10.60;61.40;;;;;;5075881;28;20546;-61
2022/05/03 05:40:55;;;;;;;9.17;4.50;;;10.60;61.20;;;;;;5076003;28;20532;-61
2022/05/03 05:43:22;;;;;;;5.83;5.33;;;10.70;61.20;;;;;;5075921;28;20477;-61
2022/05/03 05:45:49;;;;;;;9.20;4.50;;;10.70;61.50;;;;;;5076216;28;20450;-61
2022/05/03 05:48:17;;;;;;;4.73;4.23;;;10.70;61.50;;;;;;5075742;28;20482;-62
2022/05/03 05:50:45;;;;;;;5.33;4.80;;;10.70;61.30;;;;;;5075994;28;20476;-62
2022/05/03 05:55:57;;;;;;;11.37;5.40;;;10.60;61.30;;;;;;5061880;28;20525;-61
2022/05/03 05:58:24;;;;;;;6.87;5.40;;;10.50;61.10;;;;;;5076320;28;20859;-61
2022/05/03 06:00:51;;;;;;;6.93;4.73;;;10.50;60.90;;;;;;5075690;28;20461;-60
2022/05/03 06:03:20;;;;;;;9.67;4.73;;;10.50;60.80;;;;;;5075275;28;20863;-62
2022/05/03 06:05:49;;;;;;;6.30;5.03;;;10.40;60.50;;;;;;5075255;28;20823;-63
2022/05/03 06:08:16;;;;;;;5.23;4.27;;;10.40;60.20;;;;;;5075172;28;20562;-61
2022/05/03 06:10:43;;;;;;;5.60;4.40;;;10.40;59.90;;;;;;5075078;28;20820;-61
2022/05/03 06:13:13;;;;;;;4.80;4.33;;;10.50;59.60;;;;;;5075270;28;21014;-61
2022/05/03 06:15:41;;;;;;;5.10;3.57;;;10.50;59.10;;;;;;5075317;28;20458;-62
2022/05/03 06:18:09;;;;;;;4.93;3.90;;;10.60;58.60;;;;;;5075817;28;20550;-61
2022/05/03 06:20:36;;;;;;;4.30;3.80;;;10.60;57.80;;;;;;5076198;28;20451;-62
2022/05/03 06:23:05;;;;;;;5.10;4.33;;;10.70;57.20;;;;;;5074149;28;20981;-61
2022/05/03 06:25:33;;;;;;;5.53;4.10;;;10.70;56.70;;;;;;5074545;28;20436;-62
2022/05/03 06:28:00;;;;;;;4.30;3.40;;;10.80;56.40;;;;;;5074680;28;20457;-62
2022/05/03 06:30:27;;;;;;;3.77;3.00;;;10.90;56.20;;;;;;5074941;28;20809;-61
2022/05/03 06:32:55;;;;;;;5.43;3.43;;;10.90;55.70;;;;;;5075461;28;20534;-61
2022/05/03 06:35:22;;;;;;;4.63;2.90;;;11.00;54.80;;;;;;5082543;28;20450;-62
2022/05/03 06:37:49;;;;;;;4.60;2.97;;;11.00;54.20;;;;;;5075278;28;20445;-62
2022/05/03 06:40:18;;;;;;;4.90;3.43;;;11.10;53.80;;;;;;5074651;28;20433;-62
2022/05/03 06:42:45;;;;;;;6.60;3.10;;;11.20;53.30;;;;;;5073792;28;20471;-62
2022/05/03 06:45:12;;;;;;;3.00;2.70;;;11.30;52.90;;;;;;5074673;28;20539;-63
2022/05/03 06:47:40;;;;;;;3.20;2.73;;;11.30;52.30;;;;;;5074942;28;20451;-62
2022/05/03 06:50:09;;;;;;;3.13;2.70;;;11.40;51.80;;;;;;5073665;28;21710;-61
2022/05/03 06:52:37;;;;;;;4.70;3.13;;;11.40;51.20;;;;;;5075294;28;20843;-60
2022/05/03 06:55:05;;;;;;;4.10;2.53;;;11.40;50.90;;;;;;5074167;28;20473;-60
2022/05/03 06:57:34;;;;;;;2.97;2.67;;;11.50;50.80;;;;;;5074634;28;20444;-61
2022/05/03 07:00:05;;;;;;;2.60;2.40;;;11.60;50.40;;;;;;5074680;28;20451;-63
2022/05/03 07:02:32;;;;;;;2.60;2.10;;;11.80;50.00;;;;;;5073958;28;20990;-61
2022/05/03 07:05:00;;;;;;;2.00;1.80;;;11.90;49.40;;;;;;5074245;28;20442;-61
2022/05/03 07:07:28;;;;;;;4.30;2.33;;;12.00;48.70;;;;;;5073016;28;20470;-63
2022/05/03 07:09:55;;;;;;;3.57;2.17;;;12.10;47.80;;;;;;5074061;28;20470;-62
2022/05/03 07:12:22;;;;;;;4.70;1.80;;;12.10;47.50;;;;;;5074687;28;20999;-61
2022/05/03 07:14:50;;;;;;;2.73;2.07;;;12.20;46.90;;;;;;5074676;28;20533;-61
2022/05/03 07:22:51;;;;;;;3.10;1.80;;;12.50;45.30;;;;;;5072611;28;20453;-61
2022/05/03 07:25:19;;;;;;;3.20;2.37;;;12.70;44.70;;;;;;5073741;28;20488;-60
2022/05/03 07:27:46;;;;;;;4.23;1.53;;;12.80;44.30;;;;;;5074276;28;20450;-62
2022/05/03 07:30:16;;;;;;;4.03;1.70;;;12.90;43.80;;;;;;5074194;28;20582;-62
2022/05/03 07:32:43;;;;;;;2.03;1.53;;;12.90;43.20;;;;;;5073079;28;20546;-61
2022/05/03 07:35:11;;;;;;;4.57;1.80;;;12.90;43.20;;;;;;5073078;28;20469;-61
2022/05/03 07:37:39;;;;;;;2.30;2.00;;;13.00;43.30;;;;;;5072723;28;20517;-61
2022/05/03 07:40:08;;;;;;;2.07;1.87;;;13.00;43.30;;;;;;5073683;28;20447;-61
2022/05/03 07:42:35;;;;;;;6.60;1.90;;;13.10;43.20;;;;;;5073068;28;20479;-61
2022/05/03 07:45:03;;;;;;;4.33;2.30;;;13.20;43.10;;;;;;5072870;28;20948;-61
2022/05/03 07:47:31;;;;;;;2.80;2.50;;;13.30;43.00;;;;;;5072593;28;20447;-62
2022/05/03 07:49:59;;;;;;;3.80;2.97;;;13.40;42.90;;;;;;5073396;28;20476;-62
2022/05/03 07:52:27;;;;;;;3.57;3.27;;;13.40;43.30;;;;;;5073571;28;20482;-64
2022/05/03 07:54:55;;;;;;;5.13;3.07;;;13.40;43.60;;;;;;5072473;28;20485;-62
2022/05/03 07:57:22;;;;;;;6.20;2.87;;;13.60;43.80;;;;;;5073418;28;20443;-61
2022/05/03 07:59:49;;;;;;;3.60;3.00;;;13.70;44.00;;;;;;5073548;28;20443;-62
2022/05/03 08:02:16;;;;;;;3.87;3.00;;;13.80;44.10;;;;;;5072842;28;20466;-62
2022/05/03 08:04:45;;;;;;;5.60;3.03;;;13.80;44.10;;;;;;5073792;28;20805;-61
2022/05/03 08:07:12;;;;;;;3.20;2.70;;;13.90;44.10;;;;;;5073728;28;20431;-62
2022/05/03 08:09:39;;;;;;;5.57;2.90;;;14.00;44.00;;;;;;5072856;28;20522;-61
2022/05/03 08:12:08;;;;;;;4.70;3.20;;;14.10;44.20;;;;;;5074130;28;20466;-62
2022/05/03 08:14:36;;;;;;;4.40;2.70;;;14.20;44.20;;;;;;5074323;28;20451;-61
2022/05/03 08:17:03;;;;;;;4.13;3.67;;;14.30;44.20;;;;;;5074284;28;20476;-62
2022/05/03 08:19:31;;;;;;;3.20;2.90;;;14.40;44.10;;;;;;5076474;28;20452;-62
2022/05/03 08:21:59;;;;;;;6.28;3.50;;;14.50;44.00;;;;;;5075527;28;20434;-62
2022/05/03 08:24:26;;;;;;;4.83;3.47;;;14.70;43.90;;;;;;5075660;28;20541;-63
2022/05/03 08:26:54;;;;;;;5.03;3.13;;;14.90;43.90;;;;;;5073484;28;20445;-63
2022/05/03 08:29:21;;;;;;;4.63;3.50;;;15.00;43.80;;;;;;5074516;28;20481;-62
2022/05/03 08:31:49;;;;;;;8.20;3.90;;;15.00;43.70;;;;;;5073330;28;20866;-62
2022/05/03 08:34:16;;;;;;;4.90;3.13;;;15.00;44.00;;;;;;5074328;28;20447;-62
2022/05/03 08:42:01;;;;;;;6.90;3.10;;;14.90;44.20;;;;;;5075670;28;21014;-64
2022/05/03 08:42:17;;;;;;;3.47;3.17;;;15.00;44.40;;;;;;5075833;28;20453;-63
2022/05/03 08:44:44;;;;;;;5.00;3.43;;;15.00;44.50;;;;;;5077856;28;20459;-61
2022/05/03 08:47:11;;;;;;;4.20;3.10;;;15.10;44.60;;;;;;5079349;28;20454;-62
2022/05/03 08:49:46;;;;;;;4.40;3.50;;;15.20;44.70;;;;;;5078077;28;20537;-63
2022/05/03 08:52:14;;;;;;;3.73;3.17;;;15.20;44.80;;;;;;5078186;28;20461;-63
2022/05/03 08:54:44;;;;;;;3.70;3.30;;;15.20;44.80;;;;;;5076808;28;20811;-64
2022/05/03 08:57:11;;;;;;;3.70;2.43;;;15.20;45.00;;;;;;5079295;28;20779;-63
2022/05/03 08:59:39;;;;;;;3.30;3.00;;;15.20;45.10;;;;;;5081966;28;20935;-63
2022/05/03 09:02:06;;;;;;;3.40;2.80;;;15.20;45.20;;;;;;5079105;28;20983;-64
2022/05/03 09:04:33;;;;;;;2.80;2.60;;;15.20;45.20;;;;;;5078905;28;20820;-64
2022/05/03 09:07:17;;;;;;;3.10;2.80;;;15.30;45.20;;;;;;5077170;28;20463;-63
2022/05/03 09:09:45;;;;;;;3.47;2.90;;;15.40;45.10;;;;;;5075674;28;20470;-66
2022/05/03 09:12:26;;;;;;;4.60;3.40;;;15.40;45.00;;;;;;5077169;28;20470;-63
2022/05/03 09:14:55;;;;;;;7.20;3.30;;;15.40;45.10;;;;;;5076791;28;20426;-64
2022/05/03 09:17:36;;;;;;;3.90;3.43;;;15.50;45.20;;;;;;5076187;28;20457;-64
2022/05/03 09:23:46;;;;;;;11.20;4.00;;;15.70;45.20;;;;;;5076980;28;20855;-64
2022/05/03 09:25:48;;;;;;;3.70;3.30;;;16.00;45.00;;;;;;5034883;28;20805;-62
2022/05/03 09:28:15;;;;;;;3.67;3.33;;;16.10;44.70;;;;;;5035665;28;21051;-62
2022/05/03 09:30:50;;;;;;;3.70;3.40;;;16.20;44.40;;;;;;5036465;28;20485;-64
2022/05/03 09:33:18;;;;;;;7.67;3.87;;;16.30;44.30;;;;;;5035628;28;20522;-65
2022/05/03 09:35:46;;;;;;;5.03;4.13;;;16.40;44.20;;;;;;5035036;28;20541;-64
2022/05/03 09:38:13;;;;;;;4.73;4.30;;;16.40;44.10;;;;;;5034823;28;20461;-63
2022/05/03 09:40:42;;;;;;;5.37;3.63;;;16.50;44.10;;;;;;5035532;28;20837;-64
2022/05/03 09:43:11;;;;;;;3.90;3.30;;;16.50;44.10;;;;;;5035659;28;20476;-63
2022/05/03 09:45:38;;;;;;;4.73;3.37;;;16.40;44.00;;;;;;5036305;28;20498;-63
2022/05/03 09:48:07;;;;;;;4.27;3.80;;;16.30;44.10;;;;;;5034974;28;20452;-62
2022/05/03 09:50:42;;;;;;;5.10;4.60;;;16.40;44.20;;;;;;5035277;28;20488;-63
2022/05/03 09:53:12;;;;;;;4.03;3.50;;;16.50;44.30;;;;;;5035706;28;20886;-62
2022/05/03 09:55:41;;;;;;;5.10;4.50;;;16.50;44.10;;;;;;5035449;28;20524;-63
2022/05/03 09:58:11;;;;;;;5.73;4.30;;;16.60;44.10;;;;;;5036212;28;20556;-63
2022/05/03 10:00:40;;;;;;;5.10;4.13;;;16.70;44.10;;;;;;5035271;28;20441;-63
2022/05/03 10:03:09;;;;;;;4.73;4.30;;;16.70;44.10;;;;;;5036784;28;20472;-63
2022/05/03 10:05:37;;;;;;;6.23;3.87;;;16.90;43.90;;;;;;5036873;28;20527;-62
2022/05/03 10:08:05;;;;;;;5.47;4.50;;;16.90;43.60;;;;;;5027459;28;20442;-63
2022/05/03 10:10:33;;;;;;;5.37;4.87;;;17.00;43.40;;;;;;5015014;28;20565;-63
2022/05/03 10:13:00;;;;;;;6.00;5.03;;;16.90;43.30;;;;;;5014401;28;20473;-63
2022/05/03 10:21:04;;;;;;;6.03;4.50;;;17.10;43.70;;;;;;5015242;28;20940;-64
2022/05/03 10:23:33;;;;;;;4.80;4.10;;;17.10;43.60;;;;;;5013918;28;20597;-64
2022/05/03 10:26:01;;;;;;;4.30;3.90;;;17.10;43.80;;;;;;5015356;28;20989;-63
2022/05/03 10:29:01;;;;;;;6.10;5.17;;;17.10;44.00;;;;;;5014706;28;20465;-64
2022/05/03 10:31:31;;;;;;;4.13;3.73;;;17.10;43.90;;;;;;5006703;28;20485;-63
2022/05/03 10:34:02;;;;;;;4.80;4.27;;;17.20;43.90;;;;;;5014635;28;20568;-63
2022/05/03 10:36:48;;;;;;;5.07;4.57;;;17.40;43.80;;;;;;5015476;28;20491;-63
2022/05/03 10:39:25;;;;;;;5.30;4.80;;;17.60;43.40;;;;;;5013862;28;20950;-63
2022/05/03 10:41:54;;;;;;;6.57;4.90;;;17.50;43.30;;;;;;5015402;28;20442;-64
2022/05/03 10:44:40;;;;;;;5.77;5.17;;;17.50;43.60;;;;;;5017775;28;20532;-63
2022/05/03 10:47:09;;;;;;;5.47;4.97;;;17.50;43.50;;;;;;5018112;28;20444;-62
2022/05/03 10:49:59;;;;;;;7.10;5.37;;;17.60;43.40;;;;;;5018137;28;21009;-63
2022/05/03 10:52:26;;;;;;;5.67;5.07;;;17.60;43.90;;;;;;5016461;28;20465;-64
2022/05/03 10:55:06;;;;;;;5.53;4.80;;;17.70;43.40;;;;;;5014658;28;20438;-64
2022/05/03 10:57:34;;;;;;;4.93;4.43;;;17.70;43.40;;;;;;5015451;28;20454;-63
2022/05/03 11:00:01;;;;;;;8.20;5.10;;;17.80;43.30;;;;;;5014035;28;20474;-63
2022/05/03 11:02:31;;;;;;;5.63;4.50;;;18.00;43.20;;;;;;5014821;28;20465;-64
2022/05/03 11:05:16;;;;;;;5.43;4.93;;;18.00;42.80;;;;;;5016888;28;20465;-63
2022/05/03 11:07:57;;;;;;;5.80;4.20;;;18.10;42.80;;;;;;5028874;28;20539;-61
2022/05/03 11:10:41;;;;;;;5.60;4.30;;;18.10;42.70;;;;;;5037349;28;20481;-63
2022/05/03 11:13:41;;;;;;;4.73;4.23;;;18.20;42.60;;;;;;5034932;28;20833;-64
2022/05/03 11:16:24;;;;;;;5.00;4.40;;;18.30;42.30;;;;;;5036891;28;20421;-63
2022/05/03 11:18:52;;;;;;;5.20;4.70;;;18.50;42.00;;;;;;5033897;28;20429;-63
2022/05/03 11:21:19;;;;;;;5.53;4.93;;;18.60;41.80;;;;;;5033797;28;20437;-64
2022/05/03 11:23:54;;;;;;;6.40;5.60;;;18.40;41.80;;;;;;5034469;28;20476;-63
2022/05/03 11:26:23;;;;;;;7.07;5.00;;;18.20;42.20;;;;;;5033738;28;20428;-64
2022/05/03 11:28:51;;;;;;;6.60;5.10;;;18.00;42.50;;;;;;5033348;28;20449;-63
2022/05/03 11:31:19;;;;;;;5.10;4.13;;;18.00;42.60;;;;;;5035153;28;20879;-62
2022/05/03 11:33:51;;;;;;;5.60;4.20;;;18.00;42.30;;;;;;5034601;28;20511;-62
2022/05/03 11:36:19;;;;;;;6.13;4.50;;;18.10;42.30;;;;;;5034847;28;20468;-63
2022/05/03 11:38:49;;;;;;;6.93;3.77;;;18.30;42.10;;;;;;5034042;28;20459;-62
2022/05/03 11:41:16;;;;;;;6.00;4.10;;;18.50;41.90;;;;;;5035109;28;20539;-62
2022/05/03 11:43:43;;;;;;;5.40;4.90;;;18.70;41.50;;;;;;5034612;28;20469;-62
2022/05/03 11:46:10;;;;;;;6.30;4.87;;;18.80;41.20;;;;;;5035893;28;20889;-63
2022/05/03 11:48:39;;;;;;;5.97;4.80;;;18.80;41.40;;;;;;5036755;28;20445;-62
2022/05/03 11:56:41;;;;;;;5.47;4.97;;;20.70;39.10;;;;;;5012596;28;20500;-64
2022/05/03 11:59:09;;;;;;;6.27;5.67;;;21.30;38.10;;;;;;5011693;28;20978;-61
2022/05/03 12:01:37;;;;;;;5.90;4.60;;;21.90;37.40;;;;;;5012880;28;20438;-63
2022/05/03 12:04:08;;;;;;;5.70;5.10;;;22.30;37.00;;;;;;5012560;28;20469;-64
2022/05/03 12:06:43;;;;;;;5.60;4.87;;;22.30;36.60;;;;;;5011948;28;20533;-60
2022/05/03 12:09:11;;;;;;;5.73;4.70;;;21.60;37.00;;;;;;5012628;28;20477;-60
2022/05/03 12:12:42;;;;;;;5.80;5.20;;;20.90;38.20;;;;;;5012815;28;20485;-60
2022/05/03 12:14:34;;;;;;;4.70;4.27;;;21.10;38.40;;;;;;5012306;28;20910;-62
2022/05/03 12:17:02;;;;;;;5.40;4.90;;;21.70;37.50;;;;;;5011995;28;20506;-59
2022/05/03 12:19:34;;;;;;;5.87;4.50;;;22.10;37.00;;;;;;5012592;28;20478;-60
2022/05/03 12:22:10;;;;;;;5.37;4.87;;;21.80;37.00;;;;;;5014161;28;20460;-61
2022/05/03 12:24:41;;;;;;;9.80;4.63;;;20.90;37.80;;;;;;5012878;28;20434;-60
2022/05/03 12:27:12;;;;;;;5.00;4.50;;;20.00;39.00;;;;;;5013160;28;20462;-60
2022/05/03 12:29:43;;;;;;;4.60;4.20;;;19.80;39.90;;;;;;5013739;28;20453;-59
2022/05/03 12:32:14;;;;;;;4.70;4.23;;;19.80;39.80;;;;;;5016437;28;20453;-59
2022/05/03 12:34:42;;;;;;;6.97;4.93;;;20.00;39.70;;;;;;5016947;28;20441;-61
2022/05/03 12:37:10;;;;;;;7.20;4.07;;;20.20;39.50;;;;;;5016695;28;20457;-60
2022/05/03 12:39:38;;;;;;;5.20;4.27;;;20.30;39.20;;;;;;5016611;28;20453;-59
2022/05/03 12:42:11;;;;;;;6.43;5.50;;;20.40;39.30;;;;;;5016740;28;20446;-58
2022/05/03 12:44:48;;;;;;;7.77;5.73;;;20.30;39.60;;;;;;5017055;28;20442;-59
2022/05/03 12:47:16;;;;;;;7.20;4.93;;;20.10;40.10;;;;;;5016611;28;20434;-60
2022/05/03 12:49:43;;;;;;;5.27;4.77;;;19.90;40.40;;;;;;5016206;28;20516;-59
2022/05/03 12:52:12;;;;;;;6.00;5.13;;;19.90;40.80;;;;;;5016506;28;20864;-60
2022/05/03 12:54:42;;;;;;;6.97;5.30;;;20.10;41.20;;;;;;5016159;28;20957;-59
2022/05/03 12:59:55;;;;;;;6.13;5.60;;;20.00;41.40;;;;;;5016331;28;20493;-61
2022/05/03 13:02:23;;;;;;;7.00;5.27;;;19.80;41.80;;;;;;5015681;28;20467;-59
2022/05/03 13:04:50;;;;;;;5.50;5.00;;;19.70;42.00;;;;;;5016463;28;20496;-60
2022/05/03 13:07:19;;;;;;;5.60;5.10;;;19.50;42.20;;;;;;5015829;28;20450;-60
2022/05/03 13:09:46;;;;;;;5.13;4.57;;;19.50;42.50;;;;;;5016133;28;20446;-59
2022/05/03 13:12:13;;;;;;;6.53;5.03;;;19.70;42.50;;;;;;5015825;28;21005;-60
2022/05/03 13:14:40;;;;;;;5.83;5.00;;;19.90;42.10;;;;;;5015792;28;20458;-60
2022/05/03 13:17:08;;;;;;;5.57;5.00;;;19.90;41.70;;;;;;5016292;28;20453;-60
2022/05/03 13:19:35;;;;;;;6.17;5.23;;;19.80;41.80;;;;;;5015844;28;20449;-59
2022/05/03 13:22:02;;;;;;;8.63;5.00;;;19.90;41.80;;;;;;5016606;28;20453;-60
2022/05/03 13:24:30;;;;;;;5.70;5.10;;;19.90;42.30;;;;;;5016779;28;20460;-59
2022/05/03 13:26:58;;;;;;;6.17;5.67;;;19.70;42.70;;;;;;5015566;28;20957;-59
2022/05/03 13:29:25;;;;;;;6.83;5.13;;;19.50;43.10;;;;;;5015664;28;20543;-59
2022/05/03 13:31:53;;;;;;;5.50;5.00;;;19.30;43.60;;;;;;5015558;28;20977;-60
2022/05/03 13:34:20;;;;;;;6.33;4.60;;;19.30;43.90;;;;;;5015874;28;20508;-60
2022/05/03 13:42:17;;;;;;;7.43;6.03;;;19.10;44.00;;;;;;5014826;28;20456;-60
2022/05/03 13:44:44;;;;;;;6.10;5.60;;;19.00;44.40;;;;;;5015695;28;20559;-60
2022/05/03 13:47:12;;;;;;;9.93;6.20;;;19.00;44.70;;;;;;5015526;28;20457;-60
2022/05/03 13:49:39;;;;;;;6.23;5.63;;;19.10;44.80;;;;;;5015228;28;20462;-61
2022/05/03 13:52:07;;;;;;;9.23;6.27;;;19.20;44.70;;;;;;5015447;28;20558;-60
2022/05/03 13:54:36;;;;;;;6.97;6.27;;;19.10;44.70;;;;;;5015767;28;20452;-60